sensor_id;sensor_type;location;lat;lon;timestamp;temperature;humidity
3942;DHT22;1985;48.592;8.850;2023-12-28T00:01:08;4.40;99.90
3942;DHT22;1985;48.592;8.850;2023-12-28T00:03:34;4.50;99.90
3942;DHT22;1985;48.592;8.850;2023-12-28T00:05:59;4.40;99.90
3942;DHT22;1985;48.592;8.850;2023-12-28T00:08:25;4.40;99.90
3942;DHT22;1985;48.592;8.850;2023-12-28T00:10:51;4.20;99.90
3942;DHT22;1985;48.592;8.850;2023-12-28T00:13:17;4.20;99.90
3942;DHT22;1985;48.592;8.850;2023-12-28T00:15:42;4.10;99.90
3942;DHT22;1985;48.592;8.850;2023-12-28T00:18:08;3.90;99.90
3942;DHT22;1985;48.592;8.850;2023-12-28T00:20:34;3.80;99.90
3942;DHT22;1985;48.592;8.850;2023-12-28T00:22:59;3.70;99.90
3942;DHT22;1985;48.592;8.850;2023-12-28T00:25:25;3.50;99.90
3942;DHT22;1985;48.592;8.850;2023-12-28T00:27:51;3.50;99.90
3942;DHT22;1985;48.592;8.850;2023-12-28T00:30:17;3.60;99.90
3942;DHT22;1985;48.592;8.850;2023-12-28T00:32:45;3.70;99.90
3942;DHT22;1985;48.592;8.850;2023-12-28T00:35:11;3.80;99.90
3942;DHT22;1985;48.592;8.850;2023-12-28T00:37:37;3.90;99.90
3942;DHT22;1985;48.592;8.850;2023-12-28T00:40:03;3.90;99.90
3942;DHT22;1985;48.592;8.850;2023-12-28T00:42:28;4.00;99.90
3942;DHT22;1985;48.592;8.850;2023-12-28T00:44:54;3.90;99.90
3942;DHT22;1985;48.592;8.850;2023-12-28T00:47:20;3.90;99.90
3942;DHT22;1985;48.592;8.850;2023-12-28T00:49:45;3.80;99.90
3942;DHT22;1985;48.592;8.850;2023-12-28T00:52:11;3.80;99.90
3942;DHT22;1985;48.592;8.850;2023-12-28T00:54:36;3.80;99.90
3942;DHT22;1985;48.592;8.850;2023-12-28T00:57:03;3.80;99.90
3942;DHT22;1985;48.592;8.850;2023-12-28T00:59:29;3.80;99.90
3942;DHT22;1985;48.592;8.850;2023-12-28T01:01:56;3.80;99.90
3942;DHT22;1985;48.592;8.850;2023-12-28T01:04:22;3.80;99.90
3942;DHT22;1985;48.592;8.850;2023-12-28T01:06:49;3.90;99.90
3942;DHT22;1985;48.592;8.850;2023-12-28T01:09:15;3.80;99.90
3942;DHT22;1985;48.592;8.850;2023-12-28T01:11:40;3.90;99.90
3942;DHT22;1985;48.592;8.850;2023-12-28T01:14:06;3.90;99.90
3942;DHT22;1985;48.592;8.850;2023-12-28T01:16:32;4.00;99.90
3942;DHT22;1985;48.592;8.850;2023-12-28T01:18:58;4.00;99.90
3942;DHT22;1985;48.592;8.850;2023-12-28T01:21:24;4.00;99.90
3942;DHT22;1985;48.592;8.850;2023-12-28T01:23:51;4.00;99.90
3942;DHT22;1985;48.592;8.850;2023-12-28T01:26:16;4.20;99.90
3942;DHT22;1985;48.592;8.850;2023-12-28T01:28:42;4.30;99.90
3942;DHT22;1985;48.592;8.850;2023-12-28T01:31:09;4.40;99.90
3942;DHT22;1985;48.592;8.850;2023-12-28T01:33:34;4.50;99.90
3942;DHT22;1985;48.592;8.850;2023-12-28T01:36:01;4.50;99.90
3942;DHT22;1985;48.592;8.850;2023-12-28T01:38:27;4.60;99.90
3942;DHT22;1985;48.592;8.850;2023-12-28T01:40:53;4.60;99.90
3942;DHT22;1985;48.592;8.850;2023-12-28T01:43:18;4.60;99.90
3942;DHT22;1985;48.592;8.850;2023-12-28T01:45:45;4.70;99.90
3942;DHT22;1985;48.592;8.850;2023-12-28T01:48:10;4.70;99.90
3942;DHT22;1985;48.592;8.850;2023-12-28T01:50:36;4.70;99.90
3942;DHT22;1985;48.592;8.850;2023-12-28T01:53:03;4.60;99.90
3942;DHT22;1985;48.592;8.850;2023-12-28T01:55:30;4.70;99.90
3942;DHT22;1985;48.592;8.850;2023-12-28T01:57:57;4.70;99.90
3942;DHT22;1985;48.592;8.850;2023-12-28T02:00:24;4.70;99.90
3942;DHT22;1985;48.592;8.850;2023-12-28T02:02:50;4.70;99.90
3942;DHT22;1985;48.592;8.850;2023-12-28T02:05:17;4.70;99.90
3942;DHT22;1985;48.592;8.850;2023-12-28T02:07:43;4.60;99.90
3942;DHT22;1985;48.592;8.850;2023-12-28T02:10:09;4.50;99.90
3942;DHT22;1985;48.592;8.850;2023-12-28T02:12:35;4.50;99.90
3942;DHT22;1985;48.592;8.850;2023-12-28T02:15:01;4.50;99.90
3942;DHT22;1985;48.592;8.850;2023-12-28T02:19:56;4.50;99.90
3942;DHT22;1985;48.592;8.850;2023-12-28T02:22:28;4.50;99.90
3942;DHT22;1985;48.592;8.850;2023-12-28T02:25:07;4.50;99.90
3942;DHT22;1985;48.592;8.850;2023-12-28T02:27:38;4.50;99.90
3942;DHT22;1985;48.592;8.850;2023-12-28T02:30:08;4.50;99.90
3942;DHT22;1985;48.592;8.850;2023-12-28T02:38:11;4.50;99.90
3942;DHT22;1985;48.592;8.850;2023-12-28T02:40:43;4.40;99.90
3942;DHT22;1985;48.592;8.850;2023-12-28T02:43:10;4.50;99.90
3942;DHT22;1985;48.592;8.850;2023-12-28T02:45:37;4.40;99.90
3942;DHT22;1985;48.592;8.850;2023-12-28T02:48:03;4.40;99.90
3942;DHT22;1985;48.592;8.850;2023-12-28T02:50:29;4.40;99.90
3942;DHT22;1985;48.592;8.850;2023-12-28T02:52:58;4.40;99.90
3942;DHT22;1985;48.592;8.850;2023-12-28T02:55:24;4.40;99.90
3942;DHT22;1985;48.592;8.850;2023-12-28T02:57:51;4.40;99.90
3942;DHT22;1985;48.592;8.850;2023-12-28T03:00:17;4.40;99.90
3942;DHT22;1985;48.592;8.850;2023-12-28T03:02:43;4.40;99.90
3942;DHT22;1985;48.592;8.850;2023-12-28T03:05:09;4.40;99.90
3942;DHT22;1985;48.592;8.850;2023-12-28T03:07:35;4.50;99.90
3942;DHT22;1985;48.592;8.850;2023-12-28T03:10:02;4.50;99.90
3942;DHT22;1985;48.592;8.850;2023-12-28T03:12:29;4.30;99.90
3942;DHT22;1985;48.592;8.850;2023-12-28T03:14:55;4.20;99.90
3942;DHT22;1985;48.592;8.850;2023-12-28T03:17:20;3.90;99.90
3942;DHT22;1985;48.592;8.850;2023-12-28T03:19:46;4.00;99.90
3942;DHT22;1985;48.592;8.850;2023-12-28T03:22:12;4.10;99.90
3942;DHT22;1985;48.592;8.850;2023-12-28T03:24:38;4.10;99.90
3942;DHT22;1985;48.592;8.850;2023-12-28T03:27:06;4.20;99.90
3942;DHT22;1985;48.592;8.850;2023-12-28T03:29:33;4.30;99.90
3942;DHT22;1985;48.592;8.850;2023-12-28T03:31:59;4.40;99.90
3942;DHT22;1985;48.592;8.850;2023-12-28T03:34:25;4.40;99.90
3942;DHT22;1985;48.592;8.850;2023-12-28T03:36:52;4.50;99.90
3942;DHT22;1985;48.592;8.850;2023-12-28T03:39:18;4.60;99.90
3942;DHT22;1985;48.592;8.850;2023-12-28T03:41:44;4.60;99.90
3942;DHT22;1985;48.592;8.850;2023-12-28T03:44:09;4.70;99.90
3942;DHT22;1985;48.592;8.850;2023-12-28T03:46:35;4.70;99.90
3942;DHT22;1985;48.592;8.850;2023-12-28T03:49:01;4.70;99.90
3942;DHT22;1985;48.592;8.850;2023-12-28T03:51:26;4.70;99.90
3942;DHT22;1985;48.592;8.850;2023-12-28T03:53:52;4.70;99.90
3942;DHT22;1985;48.592;8.850;2023-12-28T03:56:26;4.80;99.90
3942;DHT22;1985;48.592;8.850;2023-12-28T03:58:51;4.90;99.90
3942;DHT22;1985;48.592;8.850;2023-12-28T04:01:18;4.90;99.90
3942;DHT22;1985;48.592;8.850;2023-12-28T04:03:44;4.90;99.90
3942;DHT22;1985;48.592;8.850;2023-12-28T04:06:10;4.80;99.90
3942;DHT22;1985;48.592;8.850;2023-12-28T04:08:36;4.80;99.90
3942;DHT22;1985;48.592;8.850;2023-12-28T04:11:02;4.80;99.90
3942;DHT22;1985;48.592;8.850;2023-12-28T04:13:27;4.80;99.90
3942;DHT22;1985;48.592;8.850;2023-12-28T04:15:53;4.80;99.90
3942;DHT22;1985;48.592;8.850;2023-12-28T04:18:18;4.80;99.90
3942;DHT22;1985;48.592;8.850;2023-12-28T04:20:44;4.90;99.90
3942;DHT22;1985;48.592;8.850;2023-12-28T04:23:10;5.00;99.90
3942;DHT22;1985;48.592;8.850;2023-12-28T04:25:36;5.10;99.90
3942;DHT22;1985;48.592;8.850;2023-12-28T04:28:02;5.20;99.90
3942;DHT22;1985;48.592;8.850;2023-12-28T04:30:27;5.20;99.90
3942;DHT22;1985;48.592;8.850;2023-12-28T04:32:53;5.20;99.90
3942;DHT22;1985;48.592;8.850;2023-12-28T04:35:19;5.20;99.90
3942;DHT22;1985;48.592;8.850;2023-12-28T04:37:45;5.30;99.90
3942;DHT22;1985;48.592;8.850;2023-12-28T04:40:10;5.30;99.90
3942;DHT22;1985;48.592;8.850;2023-12-28T04:42:36;5.40;99.90
3942;DHT22;1985;48.592;8.850;2023-12-28T04:45:02;5.50;99.90
3942;DHT22;1985;48.592;8.850;2023-12-28T04:47:27;5.60;99.90
3942;DHT22;1985;48.592;8.850;2023-12-28T04:49:53;5.50;99.90
3942;DHT22;1985;48.592;8.850;2023-12-28T04:52:19;5.50;99.90
3942;DHT22;1985;48.592;8.850;2023-12-28T04:54:45;5.60;99.90
3942;DHT22;1985;48.592;8.850;2023-12-28T04:57:11;5.60;99.90
3942;DHT22;1985;48.592;8.850;2023-12-28T04:59:40;5.60;99.90
3942;DHT22;1985;48.592;8.850;2023-12-28T05:02:05;5.60;99.90
3942;DHT22;1985;48.592;8.850;2023-12-28T05:04:32;5.70;99.90
3942;DHT22;1985;48.592;8.850;2023-12-28T05:06:57;5.80;99.90
3942;DHT22;1985;48.592;8.850;2023-12-28T05:09:23;5.80;99.90
3942;DHT22;1985;48.592;8.850;2023-12-28T05:11:49;5.90;99.90
3942;DHT22;1985;48.592;8.850;2023-12-28T05:14:14;5.90;99.90
3942;DHT22;1985;48.592;8.850;2023-12-28T05:16:40;5.90;99.90
3942;DHT22;1985;48.592;8.850;2023-12-28T05:19:05;6.00;99.90
3942;DHT22;1985;48.592;8.850;2023-12-28T05:21:31;6.10;99.90
3942;DHT22;1985;48.592;8.850;2023-12-28T05:23:57;6.20;99.90
3942;DHT22;1985;48.592;8.850;2023-12-28T05:26:22;6.30;99.90
3942;DHT22;1985;48.592;8.850;2023-12-28T05:28:49;6.40;99.90
3942;DHT22;1985;48.592;8.850;2023-12-28T05:31:15;6.70;99.90
3942;DHT22;1985;48.592;8.850;2023-12-28T05:33:40;6.90;99.90
3942;DHT22;1985;48.592;8.850;2023-12-28T05:36:06;7.30;99.90
3942;DHT22;1985;48.592;8.850;2023-12-28T05:38:32;7.60;99.90
3942;DHT22;1985;48.592;8.850;2023-12-28T05:40:59;7.80;99.90
3942;DHT22;1985;48.592;8.850;2023-12-28T05:43:25;8.00;99.90
3942;DHT22;1985;48.592;8.850;2023-12-28T05:45:50;8.20;99.90
3942;DHT22;1985;48.592;8.850;2023-12-28T05:48:16;8.40;99.90
3942;DHT22;1985;48.592;8.850;2023-12-28T05:50:42;8.50;99.90
3942;DHT22;1985;48.592;8.850;2023-12-28T05:53:07;8.80;99.90
3942;DHT22;1985;48.592;8.850;2023-12-28T05:55:42;9.10;99.90
3942;DHT22;1985;48.592;8.850;2023-12-28T05:58:07;9.20;99.90
3942;DHT22;1985;48.592;8.850;2023-12-28T06:00:33;9.30;99.90
3942;DHT22;1985;48.592;8.850;2023-12-28T06:02:58;9.40;99.90
3942;DHT22;1985;48.592;8.850;2023-12-28T06:05:26;9.40;99.90
3942;DHT22;1985;48.592;8.850;2023-12-28T06:07:52;9.50;99.90
3942;DHT22;1985;48.592;8.850;2023-12-28T06:10:17;9.50;99.90
3942;DHT22;1985;48.592;8.850;2023-12-28T06:12:43;9.60;99.90
3942;DHT22;1985;48.592;8.850;2023-12-28T06:15:09;9.60;99.90
3942;DHT22;1985;48.592;8.850;2023-12-28T06:17:34;9.60;99.90
3942;DHT22;1985;48.592;8.850;2023-12-28T06:20:00;9.70;99.90
3942;DHT22;1985;48.592;8.850;2023-12-28T06:22:26;9.60;99.90
3942;DHT22;1985;48.592;8.850;2023-12-28T06:24:56;9.30;99.20
3942;DHT22;1985;48.592;8.850;2023-12-28T06:27:22;9.10;98.40
3942;DHT22;1985;48.592;8.850;2023-12-28T06:29:49;8.60;97.90
3942;DHT22;1985;48.592;8.850;2023-12-28T06:32:15;8.20;96.50
3942;DHT22;1985;48.592;8.850;2023-12-28T06:34:40;7.80;96.50
3942;DHT22;1985;48.592;8.850;2023-12-28T06:37:06;7.50;96.80
3942;DHT22;1985;48.592;8.850;2023-12-28T06:39:32;7.30;97.30
3942;DHT22;1985;48.592;8.850;2023-12-28T06:41:57;7.10;97.60
3942;DHT22;1985;48.592;8.850;2023-12-28T06:44:23;6.80;98.50
3942;DHT22;1985;48.592;8.850;2023-12-28T06:46:49;6.90;99.60
3942;DHT22;1985;48.592;8.850;2023-12-28T06:49:14;7.00;99.40
3942;DHT22;1985;48.592;8.850;2023-12-28T06:51:40;7.10;99.50
3942;DHT22;1985;48.592;8.850;2023-12-28T06:54:08;7.20;99.70
3942;DHT22;1985;48.592;8.850;2023-12-28T06:56:34;7.30;99.40
3942;DHT22;1985;48.592;8.850;2023-12-28T06:58:59;7.40;99.70
3942;DHT22;1985;48.592;8.850;2023-12-28T07:01:25;7.30;99.70
3942;DHT22;1985;48.592;8.850;2023-12-28T07:03:51;7.50;99.50
3942;DHT22;1985;48.592;8.850;2023-12-28T07:06:17;7.60;99.90
3942;DHT22;1985;48.592;8.850;2023-12-28T07:08:43;7.80;99.90
3942;DHT22;1985;48.592;8.850;2023-12-28T07:11:11;7.90;99.90
3942;DHT22;1985;48.592;8.850;2023-12-28T07:13:37;8.00;99.90
3942;DHT22;1985;48.592;8.850;2023-12-28T07:16:03;8.10;99.00
3942;DHT22;1985;48.592;8.850;2023-12-28T07:18:29;8.10;99.20
3942;DHT22;1985;48.592;8.850;2023-12-28T07:20:54;8.30;99.30
3942;DHT22;1985;48.592;8.850;2023-12-28T07:23:20;8.40;99.80
3942;DHT22;1985;48.592;8.850;2023-12-28T07:25:46;8.40;99.90
3942;DHT22;1985;48.592;8.850;2023-12-28T07:28:12;8.50;99.90
3942;DHT22;1985;48.592;8.850;2023-12-28T07:30:38;8.50;99.90
3942;DHT22;1985;48.592;8.850;2023-12-28T07:33:04;8.50;99.90
3942;DHT22;1985;48.592;8.850;2023-12-28T07:35:29;8.50;99.90
3942;DHT22;1985;48.592;8.850;2023-12-28T07:37:55;8.60;99.90
3942;DHT22;1985;48.592;8.850;2023-12-28T07:40:21;8.80;99.90
3942;DHT22;1985;48.592;8.850;2023-12-28T07:42:46;8.80;99.90
3942;DHT22;1985;48.592;8.850;2023-12-28T07:45:12;8.80;99.90
3942;DHT22;1985;48.592;8.850;2023-12-28T07:47:38;8.80;99.90
3942;DHT22;1985;48.592;8.850;2023-12-28T07:50:04;8.80;99.90
3942;DHT22;1985;48.592;8.850;2023-12-28T07:52:30;8.90;99.90
3942;DHT22;1985;48.592;8.850;2023-12-28T07:54:55;8.90;99.90
3942;DHT22;1985;48.592;8.850;2023-12-28T07:57:21;8.90;99.90
3942;DHT22;1985;48.592;8.850;2023-12-28T07:59:47;8.80;99.90
3942;DHT22;1985;48.592;8.850;2023-12-28T08:02:12;8.90;99.50
3942;DHT22;1985;48.592;8.850;2023-12-28T08:04:38;8.80;99.20
3942;DHT22;1985;48.592;8.850;2023-12-28T08:07:04;8.80;99.10
3942;DHT22;1985;48.592;8.850;2023-12-28T08:09:30;8.90;98.40
3942;DHT22;1985;48.592;8.850;2023-12-28T08:11:56;8.80;98.40
3942;DHT22;1985;48.592;8.850;2023-12-28T08:14:21;8.70;98.70
3942;DHT22;1985;48.592;8.850;2023-12-28T08:16:47;8.60;98.80
3942;DHT22;1985;48.592;8.850;2023-12-28T08:19:13;8.60;98.80
3942;DHT22;1985;48.592;8.850;2023-12-28T08:21:39;8.60;98.40
3942;DHT22;1985;48.592;8.850;2023-12-28T08:24:05;8.60;98.80
3942;DHT22;1985;48.592;8.850;2023-12-28T08:26:30;8.60;98.70
3942;DHT22;1985;48.592;8.850;2023-12-28T08:28:58;8.70;98.60
3942;DHT22;1985;48.592;8.850;2023-12-28T08:31:24;8.70;98.70
3942;DHT22;1985;48.592;8.850;2023-12-28T08:33:49;8.70;99.50
3942;DHT22;1985;48.592;8.850;2023-12-28T08:36:15;8.60;99.90
3942;DHT22;1985;48.592;8.850;2023-12-28T08:38:43;8.60;99.90
3942;DHT22;1985;48.592;8.850;2023-12-28T08:41:26;8.50;99.90
3942;DHT22;1985;48.592;8.850;2023-12-28T08:43:55;8.50;99.90
3942;DHT22;1985;48.592;8.850;2023-12-28T08:46:24;8.40;99.90
3942;DHT22;1985;48.592;8.850;2023-12-28T08:48:52;8.40;99.90
3942;DHT22;1985;48.592;8.850;2023-12-28T08:51:18;8.30;99.90
3942;DHT22;1985;48.592;8.850;2023-12-28T08:53:43;8.20;99.90
3942;DHT22;1985;48.592;8.850;2023-12-28T08:56:22;8.20;99.90
3942;DHT22;1985;48.592;8.850;2023-12-28T08:58:49;8.10;99.90
3942;DHT22;1985;48.592;8.850;2023-12-28T09:01:22;8.00;99.90
3942;DHT22;1985;48.592;8.850;2023-12-28T09:03:49;8.10;99.90
3942;DHT22;1985;48.592;8.850;2023-12-28T09:06:18;8.10;99.90
3942;DHT22;1985;48.592;8.850;2023-12-28T09:08:44;8.20;99.90
3942;DHT22;1985;48.592;8.850;2023-12-28T09:11:11;8.30;99.90
3942;DHT22;1985;48.592;8.850;2023-12-28T09:13:37;8.30;99.90
3942;DHT22;1985;48.592;8.850;2023-12-28T09:16:03;8.30;99.90
3942;DHT22;1985;48.592;8.850;2023-12-28T09:18:29;8.40;99.90
3942;DHT22;1985;48.592;8.850;2023-12-28T09:20:55;8.50;99.90
3942;DHT22;1985;48.592;8.850;2023-12-28T09:23:20;8.70;99.90
3942;DHT22;1985;48.592;8.850;2023-12-28T09:25:46;8.80;99.90
3942;DHT22;1985;48.592;8.850;2023-12-28T09:28:12;9.10;99.90
3942;DHT22;1985;48.592;8.850;2023-12-28T09:30:38;9.20;99.90
3942;DHT22;1985;48.592;8.850;2023-12-28T09:33:04;9.40;99.90
3942;DHT22;1985;48.592;8.850;2023-12-28T09:35:31;9.50;99.90
3942;DHT22;1985;48.592;8.850;2023-12-28T09:37:57;9.50;99.90
3942;DHT22;1985;48.592;8.850;2023-12-28T09:40:24;9.50;99.90
3942;DHT22;1985;48.592;8.850;2023-12-28T09:45:40;9.50;99.90
3942;DHT22;1985;48.592;8.850;2023-12-28T09:48:06;9.60;99.90
3942;DHT22;1985;48.592;8.850;2023-12-28T09:50:32;9.70;99.90
3942;DHT22;1985;48.592;8.850;2023-12-28T09:52:58;9.80;99.90
3942;DHT22;1985;48.592;8.850;2023-12-28T09:55:24;9.90;99.90
3942;DHT22;1985;48.592;8.850;2023-12-28T09:57:52;10.10;99.90
3942;DHT22;1985;48.592;8.850;2023-12-28T10:00:19;10.20;99.90
3942;DHT22;1985;48.592;8.850;2023-12-28T10:02:45;10.20;99.90
3942;DHT22;1985;48.592;8.850;2023-12-28T10:05:14;10.20;99.90
3942;DHT22;1985;48.592;8.850;2023-12-28T10:07:42;10.30;99.90
3942;DHT22;1985;48.592;8.850;2023-12-28T10:10:09;10.40;99.90
3942;DHT22;1985;48.592;8.850;2023-12-28T10:12:35;10.40;99.90
3942;DHT22;1985;48.592;8.850;2023-12-28T10:15:01;10.50;99.90
3942;DHT22;1985;48.592;8.850;2023-12-28T10:17:27;10.60;99.90
3942;DHT22;1985;48.592;8.850;2023-12-28T10:19:53;10.50;99.90
3942;DHT22;1985;48.592;8.850;2023-12-28T10:22:19;10.60;99.90
3942;DHT22;1985;48.592;8.850;2023-12-28T10:24:46;10.60;99.90
3942;DHT22;1985;48.592;8.850;2023-12-28T10:27:13;10.60;99.90
3942;DHT22;1985;48.592;8.850;2023-12-28T10:29:39;10.50;99.90
3942;DHT22;1985;48.592;8.850;2023-12-28T10:32:05;10.70;99.90
3942;DHT22;1985;48.592;8.850;2023-12-28T10:34:31;10.80;99.90
3942;DHT22;1985;48.592;8.850;2023-12-28T10:36:59;10.80;99.90
3942;DHT22;1985;48.592;8.850;2023-12-28T10:39:24;11.00;99.90
3942;DHT22;1985;48.592;8.850;2023-12-28T10:41:54;11.10;99.90
3942;DHT22;1985;48.592;8.850;2023-12-28T10:44:23;11.10;99.90
3942;DHT22;1985;48.592;8.850;2023-12-28T10:46:55;11.10;99.90
3942;DHT22;1985;48.592;8.850;2023-12-28T10:49:25;11.10;99.90
3942;DHT22;1985;48.592;8.850;2023-12-28T10:51:52;10.90;99.90
3942;DHT22;1985;48.592;8.850;2023-12-28T10:56:50;11.20;99.90
3942;DHT22;1985;48.592;8.850;2023-12-28T10:59:48;11.10;99.90
3942;DHT22;1985;48.592;8.850;2023-12-28T11:02:11;11.10;99.90
3942;DHT22;1985;48.592;8.850;2023-12-28T11:04:49;11.20;99.90
3942;DHT22;1985;48.592;8.850;2023-12-28T11:07:18;11.00;99.90
3942;DHT22;1985;48.592;8.850;2023-12-28T11:09:44;11.10;99.90
3942;DHT22;1985;48.592;8.850;2023-12-28T11:12:11;11.10;99.90
3942;DHT22;1985;48.592;8.850;2023-12-28T11:14:40;11.00;99.90
3942;DHT22;1985;48.592;8.850;2023-12-28T11:17:06;11.00;99.90
3942;DHT22;1985;48.592;8.850;2023-12-28T11:19:33;11.00;99.90
3942;DHT22;1985;48.592;8.850;2023-12-28T11:22:02;11.00;99.90
3942;DHT22;1985;48.592;8.850;2023-12-28T11:24:28;11.00;99.90
3942;DHT22;1985;48.592;8.850;2023-12-28T11:26:55;11.10;99.90
3942;DHT22;1985;48.592;8.850;2023-12-28T11:29:21;11.20;99.90
3942;DHT22;1985;48.592;8.850;2023-12-28T11:31:54;11.20;99.90
3942;DHT22;1985;48.592;8.850;2023-12-28T11:34:32;11.30;99.90
3942;DHT22;1985;48.592;8.850;2023-12-28T11:37:08;11.30;99.90
3942;DHT22;1985;48.592;8.850;2023-12-28T11:39:36;11.40;99.90
3942;DHT22;1985;48.592;8.850;2023-12-28T11:42:06;11.30;99.90
3942;DHT22;1985;48.592;8.850;2023-12-28T11:44:38;11.40;99.90
3942;DHT22;1985;48.592;8.850;2023-12-28T11:47:20;11.40;99.90
3942;DHT22;1985;48.592;8.850;2023-12-28T11:49:46;11.30;99.90
3942;DHT22;1985;48.592;8.850;2023-12-28T11:52:30;11.20;99.90
3942;DHT22;1985;48.592;8.850;2023-12-28T11:54:57;11.30;99.90
3942;DHT22;1985;48.592;8.850;2023-12-28T11:57:25;11.20;99.90
3942;DHT22;1985;48.592;8.850;2023-12-28T11:59:56;11.20;99.90
3942;DHT22;1985;48.592;8.850;2023-12-28T12:02:22;11.20;99.90
3942;DHT22;1985;48.592;8.850;2023-12-28T12:04:49;11.20;99.90
3942;DHT22;1985;48.592;8.850;2023-12-28T12:07:15;11.10;99.90
3942;DHT22;1985;48.592;8.850;2023-12-28T12:09:41;11.10;99.90
3942;DHT22;1985;48.592;8.850;2023-12-28T12:12:07;11.20;99.90
3942;DHT22;1985;48.592;8.850;2023-12-28T12:14:34;11.00;99.90
3942;DHT22;1985;48.592;8.850;2023-12-28T12:17:00;10.90;99.90
3942;DHT22;1985;48.592;8.850;2023-12-28T12:19:26;11.00;99.90
3942;DHT22;1985;48.592;8.850;2023-12-28T12:21:53;10.90;99.90
3942;DHT22;1985;48.592;8.850;2023-12-28T12:24:19;11.00;99.90
3942;DHT22;1985;48.592;8.850;2023-12-28T12:26:48;10.90;99.90
3942;DHT22;1985;48.592;8.850;2023-12-28T12:29:14;11.00;99.90
3942;DHT22;1985;48.592;8.850;2023-12-28T12:31:40;11.00;99.90
3942;DHT22;1985;48.592;8.850;2023-12-28T12:34:08;10.90;99.90
3942;DHT22;1985;48.592;8.850;2023-12-28T12:36:34;10.90;99.90
3942;DHT22;1985;48.592;8.850;2023-12-28T12:39:00;10.90;99.90
3942;DHT22;1985;48.592;8.850;2023-12-28T12:41:26;10.80;99.90
3942;DHT22;1985;48.592;8.850;2023-12-28T12:43:52;10.90;99.90
3942;DHT22;1985;48.592;8.850;2023-12-28T12:46:21;10.80;99.90
3942;DHT22;1985;48.592;8.850;2023-12-28T12:49:00;10.70;99.90
3942;DHT22;1985;48.592;8.850;2023-12-28T12:51:28;10.70;99.90
3942;DHT22;1985;48.592;8.850;2023-12-28T12:54:02;10.60;99.90
3942;DHT22;1985;48.592;8.850;2023-12-28T12:56:29;10.60;99.90
3942;DHT22;1985;48.592;8.850;2023-12-28T12:58:55;10.50;99.90
3942;DHT22;1985;48.592;8.850;2023-12-28T13:01:25;10.40;99.90
3942;DHT22;1985;48.592;8.850;2023-12-28T13:03:50;10.10;99.90
3942;DHT22;1985;48.592;8.850;2023-12-28T13:06:16;9.90;99.90
3942;DHT22;1985;48.592;8.850;2023-12-28T13:08:42;9.90;99.90
3942;DHT22;1985;48.592;8.850;2023-12-28T13:11:08;10.00;99.90
3942;DHT22;1985;48.592;8.850;2023-12-28T13:13:34;10.10;99.90
3942;DHT22;1985;48.592;8.850;2023-12-28T13:16:01;10.10;99.90
3942;DHT22;1985;48.592;8.850;2023-12-28T13:18:26;9.90;99.90
3942;DHT22;1985;48.592;8.850;2023-12-28T13:20:52;9.80;99.90
3942;DHT22;1985;48.592;8.850;2023-12-28T13:23:18;9.80;99.90
3942;DHT22;1985;48.592;8.850;2023-12-28T13:25:43;9.70;99.90
3942;DHT22;1985;48.592;8.850;2023-12-28T13:28:10;9.70;99.90
3942;DHT22;1985;48.592;8.850;2023-12-28T13:30:36;9.70;99.90
3942;DHT22;1985;48.592;8.850;2023-12-28T13:33:05;9.60;99.90
3942;DHT22;1985;48.592;8.850;2023-12-28T13:35:31;9.70;99.90
3942;DHT22;1985;48.592;8.850;2023-12-28T13:37:59;9.60;99.90
3942;DHT22;1985;48.592;8.850;2023-12-28T13:40:28;9.60;99.90
3942;DHT22;1985;48.592;8.850;2023-12-28T13:42:56;9.60;99.90
3942;DHT22;1985;48.592;8.850;2023-12-28T13:45:22;9.60;99.90
3942;DHT22;1985;48.592;8.850;2023-12-28T13:47:48;9.60;99.90
3942;DHT22;1985;48.592;8.850;2023-12-28T13:50:13;9.60;99.90
3942;DHT22;1985;48.592;8.850;2023-12-28T13:52:39;9.60;99.90
3942;DHT22;1985;48.592;8.850;2023-12-28T13:55:05;9.70;99.90
3942;DHT22;1985;48.592;8.850;2023-12-28T13:57:31;9.60;99.90
3942;DHT22;1985;48.592;8.850;2023-12-28T13:59:57;9.70;99.90
3942;DHT22;1985;48.592;8.850;2023-12-28T14:02:29;9.70;99.90
3942;DHT22;1985;48.592;8.850;2023-12-28T14:04:54;9.70;99.90
3942;DHT22;1985;48.592;8.850;2023-12-28T14:07:22;9.60;99.90
3942;DHT22;1985;48.592;8.850;2023-12-28T14:09:47;9.60;99.90
3942;DHT22;1985;48.592;8.850;2023-12-28T14:12:13;9.70;99.90
3942;DHT22;1985;48.592;8.850;2023-12-28T14:14:39;9.70;99.90
3942;DHT22;1985;48.592;8.850;2023-12-28T14:17:04;9.70;99.90
3942;DHT22;1985;48.592;8.850;2023-12-28T14:19:31;9.60;99.90
3942;DHT22;1985;48.592;8.850;2023-12-28T14:21:58;9.50;99.90
3942;DHT22;1985;48.592;8.850;2023-12-28T14:24:24;9.50;99.90
3942;DHT22;1985;48.592;8.850;2023-12-28T14:26:53;9.50;99.90
3942;DHT22;1985;48.592;8.850;2023-12-28T14:29:20;9.50;99.90
3942;DHT22;1985;48.592;8.850;2023-12-28T14:31:47;9.40;99.90
3942;DHT22;1985;48.592;8.850;2023-12-28T14:34:13;9.40;99.90
3942;DHT22;1985;48.592;8.850;2023-12-28T14:36:39;9.40;99.90
3942;DHT22;1985;48.592;8.850;2023-12-28T14:39:06;9.50;99.90
3942;DHT22;1985;48.592;8.850;2023-12-28T14:41:33;9.50;99.90
3942;DHT22;1985;48.592;8.850;2023-12-28T14:43:59;9.50;99.90
3942;DHT22;1985;48.592;8.850;2023-12-28T14:46:25;9.50;99.90
3942;DHT22;1985;48.592;8.850;2023-12-28T14:48:51;9.50;99.90
3942;DHT22;1985;48.592;8.850;2023-12-28T14:51:17;9.40;99.90
3942;DHT22;1985;48.592;8.850;2023-12-28T14:53:43;9.40;99.90
3942;DHT22;1985;48.592;8.850;2023-12-28T14:56:09;9.40;99.90
3942;DHT22;1985;48.592;8.850;2023-12-28T14:58:36;9.40;99.90
3942;DHT22;1985;48.592;8.850;2023-12-28T15:01:01;9.40;99.90
3942;DHT22;1985;48.592;8.850;2023-12-28T15:03:27;9.40;99.90
3942;DHT22;1985;48.592;8.850;2023-12-28T15:05:53;9.30;99.90
3942;DHT22;1985;48.592;8.850;2023-12-28T15:08:19;9.30;99.90
3942;DHT22;1985;48.592;8.850;2023-12-28T15:10:45;9.30;99.90
3942;DHT22;1985;48.592;8.850;2023-12-28T15:13:11;9.30;99.90
3942;DHT22;1985;48.592;8.850;2023-12-28T15:15:37;9.40;99.90
3942;DHT22;1985;48.592;8.850;2023-12-28T15:18:03;9.40;99.90
3942;DHT22;1985;48.592;8.850;2023-12-28T15:20:29;9.40;99.90
3942;DHT22;1985;48.592;8.850;2023-12-28T15:22:55;9.30;99.90
3942;DHT22;1985;48.592;8.850;2023-12-28T15:25:21;9.30;99.90
3942;DHT22;1985;48.592;8.850;2023-12-28T15:27:47;9.40;99.90
3942;DHT22;1985;48.592;8.850;2023-12-28T15:30:13;9.40;99.90
3942;DHT22;1985;48.592;8.850;2023-12-28T15:32:42;9.40;99.90
3942;DHT22;1985;48.592;8.850;2023-12-28T15:35:11;9.40;99.90
3942;DHT22;1985;48.592;8.850;2023-12-28T15:37:37;9.40;99.90
3942;DHT22;1985;48.592;8.850;2023-12-28T15:40:03;9.40;99.90
3942;DHT22;1985;48.592;8.850;2023-12-28T15:42:29;9.30;99.90
3942;DHT22;1985;48.592;8.850;2023-12-28T15:44:55;9.30;99.90
3942;DHT22;1985;48.592;8.850;2023-12-28T15:47:21;9.30;99.90
3942;DHT22;1985;48.592;8.850;2023-12-28T15:49:47;9.30;99.90
3942;DHT22;1985;48.592;8.850;2023-12-28T15:52:13;9.40;99.90
3942;DHT22;1985;48.592;8.850;2023-12-28T15:54:38;9.40;99.90
3942;DHT22;1985;48.592;8.850;2023-12-28T15:57:04;9.40;99.90
3942;DHT22;1985;48.592;8.850;2023-12-28T15:59:30;9.30;99.90
3942;DHT22;1985;48.592;8.850;2023-12-28T16:01:55;9.30;99.90
3942;DHT22;1985;48.592;8.850;2023-12-28T16:04:21;9.30;99.90
3942;DHT22;1985;48.592;8.850;2023-12-28T16:06:47;9.30;99.90
3942;DHT22;1985;48.592;8.850;2023-12-28T16:09:12;9.30;99.90
3942;DHT22;1985;48.592;8.850;2023-12-28T16:11:38;9.30;99.90
3942;DHT22;1985;48.592;8.850;2023-12-28T16:14:04;9.30;99.90
3942;DHT22;1985;48.592;8.850;2023-12-28T16:16:30;9.30;99.90
3942;DHT22;1985;48.592;8.850;2023-12-28T16:18:56;9.30;99.90
3942;DHT22;1985;48.592;8.850;2023-12-28T16:21:22;9.20;99.90
3942;DHT22;1985;48.592;8.850;2023-12-28T16:23:49;9.20;99.90